Time;durP1;ratioP1;P1;durP2;ratioP2;P2;SDS_P1;SDS_P2;PMS_P1;PMS_P2;Temp;Humidity;BMP_temperature;BMP_pressure;BME280_temperature;BME280_humidity;BME280_pressure;Samples;Min_cycle;Max_cycle;Signal;HPM_P1;HPM_P2
2023/01/06 00:00:17;;;;;;;10.18;5.03;;;8.70;99.90;;;;;;5064603;28;20465;-69
2023/01/06 00:02:45;;;;;;;10.93;4.93;;;8.80;99.90;;;;;;5068150;28;20056;-68
2023/01/06 00:05:11;;;;;;;11.63;4.80;;;8.80;99.90;;;;;;5069858;28;20058;-67
2023/01/06 00:07:38;;;;;;;11.40;4.07;;;8.90;99.90;;;;;;5067754;28;20021;-69
2023/01/06 00:10:04;;;;;;;8.93;4.50;;;8.90;99.90;;;;;;5066471;28;20465;-68
2023/01/06 00:12:30;;;;;;;6.63;4.05;;;8.90;99.90;;;;;;5068402;28;20020;-70
2023/01/06 00:14:55;;;;;;;9.38;4.13;;;8.90;99.90;;;;;;5069636;28;20477;-67
2023/01/06 00:17:21;;;;;;;9.95;4.25;;;8.90;99.90;;;;;;5068590;28;20028;-68
2023/01/06 00:19:47;;;;;;;5.82;3.08;;;8.90;99.90;;;;;;5067583;28;20032;-69
2023/01/06 00:22:13;;;;;;;7.72;3.30;;;8.90;99.90;;;;;;5065793;28;20048;-68
2023/01/06 00:24:38;;;;;;;7.15;3.42;;;8.90;99.90;;;;;;5073797;28;20025;-68
2023/01/06 00:27:04;;;;;;;5.03;2.83;;;8.90;99.90;;;;;;5069941;28;20135;-68
2023/01/06 00:29:30;;;;;;;8.48;3.40;;;8.90;99.90;;;;;;5062785;28;20039;-69
2023/01/06 00:31:59;;;;;;;4.93;2.95;;;8.90;99.90;;;;;;5072818;28;20051;-68
2023/01/06 00:34:25;;;;;;;6.60;3.50;;;8.90;99.90;;;;;;5070862;28;20685;-68
2023/01/06 00:36:50;;;;;;;7.43;3.47;;;8.90;99.90;;;;;;5069527;28;20029;-68
2023/01/06 00:39:16;;;;;;;8.85;3.28;;;8.90;99.90;;;;;;5064631;28;20021;-69
2023/01/06 00:44:26;;;;;;;7.70;3.58;;;8.90;99.90;;;;;;5068609;28;20054;-68
2023/01/06 00:46:51;;;;;;;6.93;3.22;;;8.90;99.90;;;;;;5069552;28;20040;-68
2023/01/06 00:49:17;;;;;;;8.85;3.65;;;8.90;99.90;;;;;;5069245;28;20362;-69
2023/01/06 00:51:43;;;;;;;8.00;3.70;;;8.90;99.90;;;;;;5061855;28;20428;-68
2023/01/06 00:54:11;;;;;;;7.93;4.13;;;9.00;99.90;;;;;;5061035;28;20484;-69
2023/01/06 00:56:38;;;;;;;7.20;3.65;;;8.90;99.90;;;;;;5055995;28;20017;-70
2023/01/06 00:59:05;;;;;;;7.97;3.65;;;8.80;99.90;;;;;;5064311;28;20564;-67
2023/01/06 01:01:32;;;;;;;11.10;4.25;;;8.80;99.90;;;;;;5062975;28;20036;-68
2023/01/06 01:03:57;;;;;;;5.57;3.30;;;8.70;99.90;;;;;;5067552;28;20028;-69
2023/01/06 01:06:23;;;;;;;6.85;3.88;;;8.80;99.90;;;;;;5065317;28;20404;-68
2023/01/06 01:08:56;;;;;;;6.72;3.85;;;8.80;99.90;;;;;;5063437;28;20047;-68
2023/01/06 01:14:06;;;;;;;7.97;3.60;;;8.80;99.90;;;;;;5055457;28;20040;-68
2023/01/06 01:16:32;;;;;;;7.82;3.80;;;8.80;99.90;;;;;;5067613;28;20033;-70
2023/01/06 01:18:58;;;;;;;5.88;3.58;;;8.80;99.90;;;;;;5067024;28;20028;-69
2023/01/06 01:21:24;;;;;;;6.45;3.33;;;8.80;99.90;;;;;;5068817;28;20040;-69
2023/01/06 01:23:49;;;;;;;6.85;3.63;;;8.70;99.90;;;;;;5066999;28;20094;-69
2023/01/06 01:26:15;;;;;;;5.53;3.53;;;8.70;99.90;;;;;;5068222;28;20029;-69
2023/01/06 01:28:41;;;;;;;7.78;3.35;;;8.70;99.90;;;;;;5070412;28;20029;-70
2023/01/06 01:31:06;;;;;;;6.20;3.25;;;8.70;99.90;;;;;;5067869;28;20808;-68
2023/01/06 01:33:32;;;;;;;6.07;3.50;;;8.70;99.90;;;;;;5066571;28;20037;-69
2023/01/06 01:36:05;;;;;;;7.80;3.30;;;8.70;99.90;;;;;;5064157;28;20067;-67
2023/01/06 01:38:31;;;;;;;7.18;3.60;;;8.70;99.90;;;;;;5057032;28;20029;-69
2023/01/06 01:40:56;;;;;;;7.85;3.92;;;8.70;99.90;;;;;;5059342;28;20039;-69
2023/01/06 01:43:22;;;;;;;8.27;3.65;;;8.70;99.90;;;;;;5069012;28;20082;-69
2023/01/06 01:45:51;;;;;;;7.10;3.58;;;8.70;99.90;;;;;;5065532;28;20393;-69
2023/01/06 01:48:34;;;;;;;7.90;3.70;;;8.70;99.90;;;;;;5068135;28;20033;-68
2023/01/06 01:51:04;;;;;;;5.57;3.65;;;8.80;99.90;;;;;;5060847;28;20025;-68
2023/01/06 01:53:37;;;;;;;7.23;3.63;;;8.70;99.90;;;;;;5067382;28;20100;-69
2023/01/06 01:56:07;;;;;;;6.53;3.33;;;8.70;99.90;;;;;;5067633;28;20047;-69
2023/01/06 01:58:47;;;;;;;6.65;4.00;;;8.80;99.90;;;;;;5071763;28;20032;-70
2023/01/06 02:01:13;;;;;;;6.75;3.75;;;8.70;99.90;;;;;;5062771;28;20777;-69
2023/01/06 02:03:40;;;;;;;7.28;3.45;;;8.70;99.90;;;;;;5058890;28;20025;-68
2023/01/06 02:06:17;;;;;;;6.35;3.83;;;8.70;99.90;;;;;;5063263;28;20500;-68
2023/01/06 02:08:56;;;;;;;9.05;4.18;;;8.70;99.90;;;;;;5065335;28;20028;-68
2023/01/06 02:11:23;;;;;;;8.37;4.10;;;8.70;99.90;;;;;;5056419;28;20028;-69
2023/01/06 02:13:55;;;;;;;8.63;4.07;;;8.70;99.90;;;;;;5063777;28;20294;-69
2023/01/06 02:16:33;;;;;;;9.57;4.00;;;8.70;99.90;;;;;;5058849;28;20052;-68
2023/01/06 02:19:07;;;;;;;7.78;4.38;;;8.70;99.90;;;;;;5066196;28;20504;-68
2023/01/06 02:22:00;;;;;;;10.18;4.88;;;8.70;99.90;;;;;;5064295;28;20020;-70
2023/01/06 02:24:29;;;;;;;8.65;4.13;;;8.60;99.90;;;;;;5066567;28;20029;-69
2023/01/06 02:27:13;;;;;;;9.20;4.57;;;8.60;99.90;;;;;;5065829;28;20375;-68
2023/01/06 02:29:44;;;;;;;8.63;3.80;;;8.50;99.90;;;;;;5067165;28;20062;-69
2023/01/06 02:32:09;;;;;;;8.35;4.38;;;8.50;99.90;;;;;;5062274;28;20036;-69
2023/01/06 02:34:52;;;;;;;7.13;4.10;;;8.50;99.90;;;;;;5064246;28;20444;-70
2023/01/06 02:37:51;;;;;;;7.85;4.55;;;8.50;99.90;;;;;;5068042;28;20043;-68
2023/01/06 02:40:25;;;;;;;11.02;4.93;;;8.50;99.90;;;;;;5066949;28;20050;-69
2023/01/06 02:43:14;;;;;;;7.95;4.55;;;8.50;99.90;;;;;;5068068;28;20055;-68
2023/01/06 02:46:10;;;;;;;8.40;4.50;;;8.50;99.90;;;;;;5061662;28;20028;-68
2023/01/06 02:49:07;;;;;;;7.28;4.13;;;8.40;99.90;;;;;;5058559;28;20028;-71
2023/01/06 02:52:00;;;;;;;8.73;4.47;;;8.40;99.90;;;;;;5058046;28;20028;-67
2023/01/06 02:54:32;;;;;;;5.70;3.63;;;8.50;99.90;;;;;;5063748;28;20068;-68
2023/01/06 02:57:42;;;;;;;8.25;3.60;;;8.50;99.90;;;;;;5067241;28;20082;-67
2023/01/06 03:00:17;;;;;;;9.25;4.28;;;8.50;99.90;;;;;;5039537;28;20065;-68
2023/01/06 03:02:49;;;;;;;9.07;4.53;;;8.50;99.90;;;;;;5058623;28;20430;-69
2023/01/06 03:05:16;;;;;;;6.30;3.63;;;8.50;99.90;;;;;;5067849;28;20116;-68
2023/01/06 03:07:45;;;;;;;7.78;4.25;;;8.50;99.90;;;;;;5065188;28;20037;-69
2023/01/06 03:10:13;;;;;;;7.63;3.97;;;8.50;99.90;;;;;;5067742;28;20067;-68
2023/01/06 03:12:52;;;;;;;7.07;3.58;;;8.60;99.90;;;;;;5063672;28;20720;-70
2023/01/06 03:15:17;;;;;;;6.05;3.40;;;8.50;99.90;;;;;;5067848;28;20032;-67
2023/01/06 03:17:44;;;;;;;6.22;3.47;;;8.50;99.90;;;;;;5066927;28;20040;-68
2023/01/06 03:20:11;;;;;;;6.78;3.58;;;8.50;99.90;;;;;;5065656;28;20060;-68
2023/01/06 03:22:37;;;;;;;7.10;3.75;;;8.40;99.90;;;;;;5067070;28;20167;-69
2023/01/06 03:25:05;;;;;;;7.85;4.07;;;8.30;99.90;;;;;;5066099;28;20486;-69
2023/01/06 03:27:31;;;;;;;8.13;4.07;;;8.30;99.90;;;;;;5063127;28;20132;-69
2023/01/06 03:29:58;;;;;;;6.45;3.92;;;8.40;99.90;;;;;;5063293;28;20036;-69
2023/01/06 03:32:47;;;;;;;6.55;3.47;;;8.40;99.90;;;;;;5056876;28;20028;-68
2023/01/06 03:35:32;;;;;;;6.93;4.03;;;8.40;99.90;;;;;;5065704;28;20036;-67
2023/01/06 03:38:18;;;;;;;7.70;4.20;;;8.40;99.90;;;;;;5066487;28;20310;-67
2023/01/06 03:40:58;;;;;;;5.78;3.60;;;8.30;99.90;;;;;;5067623;28;20028;-68
2023/01/06 03:43:40;;;;;;;7.13;4.13;;;8.20;99.90;;;;;;5071971;28;20727;-69
2023/01/06 03:46:25;;;;;;;7.68;3.90;;;8.20;99.90;;;;;;5066685;28;20036;-69
2023/01/06 03:48:57;;;;;;;7.05;3.97;;;8.10;99.90;;;;;;5067847;28;20090;-69
2023/01/06 03:51:39;;;;;;;7.13;3.97;;;8.10;99.90;;;;;;5057401;28;20363;-67
2023/01/06 03:54:08;;;;;;;7.80;4.40;;;8.20;99.90;;;;;;5065944;28;20507;-68
2023/01/06 03:56:49;;;;;;;7.95;4.47;;;8.20;99.90;;;;;;5069117;28;20564;-67
2023/01/06 03:59:22;;;;;;;6.38;3.70;;;8.20;99.90;;;;;;5068148;28;20815;-68
2023/01/06 04:01:49;;;;;;;6.70;3.55;;;8.20;99.90;;;;;;5063063;28;20112;-67
2023/01/06 04:04:16;;;;;;;5.97;3.60;;;8.20;99.90;;;;;;5069102;28;20036;-69
2023/01/06 04:06:42;;;;;;;6.22;3.05;;;8.30;99.90;;;;;;5069401;28;20024;-68
2023/01/06 04:09:08;;;;;;;4.57;2.80;;;8.30;99.90;;;;;;5070162;28;20499;-68
2023/01/06 04:14:18;;;;;;;5.25;2.80;;;8.50;99.90;;;;;;5067771;28;20116;-68
2023/01/06 04:16:44;;;;;;;5.00;3.15;;;8.50;99.90;;;;;;5057809;28;20100;-70
2023/01/06 04:19:09;;;;;;;7.50;2.53;;;8.60;99.90;;;;;;5068590;28;20120;-68
2023/01/06 04:21:35;;;;;;;5.63;3.10;;;8.60;99.90;;;;;;5065512;28;20025;-68
2023/01/06 04:24:01;;;;;;;6.68;3.22;;;8.60;99.90;;;;;;5068688;28;20039;-69
2023/01/06 04:26:26;;;;;;;6.60;2.72;;;8.60;99.90;;;;;;5069131;28;20044;-67
2023/01/06 04:28:52;;;;;;;5.43;2.75;;;8.60;99.90;;;;;;5060670;28;20028;-68
2023/01/06 04:31:18;;;;;;;4.25;2.63;;;8.70;99.90;;;;;;5068686;28;20028;-67
2023/01/06 04:33:43;;;;;;;4.35;2.60;;;8.70;99.90;;;;;;5061218;28;20040;-70
2023/01/06 04:36:09;;;;;;;5.60;3.00;;;8.80;99.90;;;;;;5070005;28;20428;-67
2023/01/06 04:38:35;;;;;;;4.70;2.80;;;8.80;99.90;;;;;;5063686;28;20032;-69
2023/01/06 04:41:00;;;;;;;4.40;2.70;;;8.80;99.90;;;;;;5062365;28;20093;-68
2023/01/06 04:43:26;;;;;;;7.30;2.97;;;8.70;99.90;;;;;;5067693;28;20024;-69
2023/01/06 04:45:52;;;;;;;5.00;3.00;;;8.70;99.90;;;;;;5072395;28;20066;-68
2023/01/06 04:48:17;;;;;;;6.07;2.65;;;8.70;99.90;;;;;;5060178;28;20033;-68
2023/01/06 04:50:43;;;;;;;6.75;2.72;;;8.70;99.90;;;;;;5065359;28;20032;-69
2023/01/06 04:53:11;;;;;;;4.38;2.50;;;8.70;99.90;;;;;;5067090;28;20028;-70
2023/01/06 04:55:38;;;;;;;7.25;2.92;;;8.70;99.90;;;;;;5065678;28;20074;-69
2023/01/06 04:58:04;;;;;;;6.63;3.20;;;8.70;99.90;;;;;;5068883;28;20040;-69
2023/01/06 05:00:30;;;;;;;5.65;2.95;;;8.60;99.90;;;;;;5069577;28;20036;-69
2023/01/06 05:02:55;;;;;;;5.05;3.00;;;8.50;99.90;;;;;;5066510;28;20397;-70
2023/01/06 05:05:21;;;;;;;5.85;2.80;;;8.50;99.90;;;;;;5074926;28;20032;-69
2023/01/06 05:07:47;;;;;;;5.05;2.65;;;8.40;99.90;;;;;;5069140;28;20049;-71
2023/01/06 05:10:12;;;;;;;4.60;2.53;;;8.40;99.90;;;;;;5067721;28;20032;-67
2023/01/06 05:12:38;;;;;;;8.20;2.63;;;8.40;99.90;;;;;;5067331;28;20124;-68
2023/01/06 05:15:04;;;;;;;6.30;3.00;;;8.30;99.90;;;;;;5066292;28;20045;-68
2023/01/06 05:17:30;;;;;;;5.22;2.90;;;8.30;99.90;;;;;;5064563;28;20034;-68
2023/01/06 05:19:56;;;;;;;5.47;2.88;;;8.30;99.90;;;;;;5061553;28;20153;-67
2023/01/06 05:22:21;;;;;;;5.80;3.00;;;8.30;99.90;;;;;;5057681;28;20029;-68
2023/01/06 05:24:47;;;;;;;8.05;2.97;;;8.30;99.90;;;;;;5066699;28;20036;-69
2023/01/06 05:27:12;;;;;;;4.75;2.67;;;8.20;99.90;;;;;;5060882;28;20086;-69
2023/01/06 05:29:38;;;;;;;7.72;3.08;;;8.20;99.90;;;;;;5056029;28;20052;-68
2023/01/06 05:32:05;;;;;;;6.43;2.85;;;8.20;99.90;;;;;;5053962;28;20163;-68
2023/01/06 05:34:31;;;;;;;6.75;3.22;;;8.10;99.90;;;;;;5056086;28;20028;-70
2023/01/06 05:36:57;;;;;;;5.72;3.08;;;8.10;99.90;;;;;;5050558;28;20044;-69
2023/01/06 05:39:23;;;;;;;6.30;2.95;;;8.10;99.90;;;;;;5064420;28;20024;-69
2023/01/06 05:41:48;;;;;;;6.07;3.22;;;8.10;99.90;;;;;;5060217;28;20024;-69
2023/01/06 05:44:14;;;;;;;6.30;3.00;;;8.20;99.90;;;;;;5064893;28;20087;-67
2023/01/06 05:46:39;;;;;;;7.22;2.88;;;8.20;99.90;;;;;;5065184;28;20039;-68
2023/01/06 05:49:05;;;;;;;6.97;2.80;;;8.20;99.90;;;;;;5054852;28;20554;-69
2023/01/06 05:51:31;;;;;;;7.40;3.17;;;8.20;99.90;;;;;;5067680;28;20059;-69
2023/01/06 05:53:56;;;;;;;6.38;3.20;;;8.20;99.90;;;;;;5059843;28;20032;-67
2023/01/06 05:56:23;;;;;;;5.47;3.00;;;8.10;99.90;;;;;;5047630;28;20083;-70
2023/01/06 05:58:51;;;;;;;5.13;2.90;;;8.10;99.90;;;;;;5066088;28;20150;-70
2023/01/06 06:01:25;;;;;;;5.30;2.95;;;8.10;99.90;;;;;;5058017;28;20025;-68
2023/01/06 06:03:52;;;;;;;5.90;2.88;;;8.10;99.90;;;;;;5050979;28;20037;-69
2023/01/06 06:06:20;;;;;;;6.00;2.92;;;8.10;99.90;;;;;;5052869;28;20021;-68
2023/01/06 06:08:46;;;;;;;5.18;2.90;;;8.20;99.90;;;;;;5056019;28;20033;-69
2023/01/06 06:11:14;;;;;;;5.60;2.90;;;8.30;99.90;;;;;;5062013;28;20358;-67
2023/01/06 06:13:55;;;;;;;6.65;2.95;;;8.30;99.90;;;;;;5051971;28;20037;-67
2023/01/06 06:16:24;;;;;;;5.45;2.92;;;8.40;99.90;;;;;;5056111;28;20135;-68
2023/01/06 06:18:52;;;;;;;6.47;2.97;;;8.40;99.90;;;;;;5050132;28;20033;-71
2023/01/06 06:21:25;;;;;;;4.88;2.97;;;8.30;99.90;;;;;;5059093;28;20416;-69
2023/01/06 06:23:55;;;;;;;8.38;3.13;;;8.20;99.90;;;;;;5054378;28;20037;-70
2023/01/06 06:26:21;;;;;;;6.05;3.20;;;8.30;99.90;;;;;;5055110;28;20055;-69
2023/01/06 06:28:47;;;;;;;5.15;3.15;;;8.20;99.90;;;;;;5054140;28;20052;-69
2023/01/06 06:31:16;;;;;;;4.53;2.75;;;8.20;99.90;;;;;;5052264;28;20068;-69
2023/01/06 06:33:42;;;;;;;5.53;2.83;;;8.20;99.90;;;;;;5049463;28;20484;-68
2023/01/06 06:36:14;;;;;;;4.95;2.92;;;8.20;99.90;;;;;;5072366;28;20041;-68
2023/01/06 06:38:41;;;;;;;8.43;3.00;;;8.20;99.90;;;;;;5069963;28;20113;-69
2023/01/06 06:41:07;;;;;;;5.32;3.00;;;8.20;99.90;;;;;;5065505;28;20545;-68
2023/01/06 06:43:33;;;;;;;5.22;2.60;;;8.20;99.90;;;;;;5060237;28;20021;-67
2023/01/06 06:45:59;;;;;;;5.10;2.70;;;8.10;99.90;;;;;;5066151;28;20390;-69
2023/01/06 06:48:26;;;;;;;6.97;2.72;;;8.00;99.90;;;;;;5066926;28;20032;-70
2023/01/06 06:51:03;;;;;;;5.25;3.03;;;8.00;99.90;;;;;;5067833;28;20104;-70
2023/01/06 06:53:29;;;;;;;4.70;2.72;;;7.90;99.90;;;;;;5070086;28;20378;-67
2023/01/06 06:55:55;;;;;;;6.70;2.60;;;7.80;99.90;;;;;;5065850;28;20039;-69
2023/01/06 06:58:21;;;;;;;5.15;3.08;;;7.80;99.90;;;;;;5058310;28;20074;-69
2023/01/06 07:00:47;;;;;;;6.40;3.20;;;7.80;99.90;;;;;;5073768;28;20036;-68
2023/01/06 07:03:12;;;;;;;4.50;2.70;;;7.70;99.90;;;;;;5067582;28;20611;-69
2023/01/06 07:05:40;;;;;;;4.95;3.15;;;7.80;99.90;;;;;;5067918;28;20055;-68
2023/01/06 07:08:05;;;;;;;5.80;2.90;;;7.70;99.90;;;;;;5072641;28;20480;-70
2023/01/06 07:10:31;;;;;;;5.43;2.85;;;7.80;99.90;;;;;;5073177;28;20036;-69
2023/01/06 07:12:57;;;;;;;4.97;2.92;;;7.80;99.90;;;;;;5068777;28;20458;-68
2023/01/06 07:15:22;;;;;;;8.65;3.40;;;7.80;99.90;;;;;;5071398;28;20469;-67
2023/01/06 07:17:48;;;;;;;7.43;3.78;;;7.80;99.90;;;;;;5072003;28;20139;-68
2023/01/06 07:20:14;;;;;;;7.80;4.00;;;7.80;99.90;;;;;;5072219;28;20017;-67
2023/01/06 07:22:40;;;;;;;7.65;3.97;;;7.80;99.90;;;;;;5069878;28;20028;-69
2023/01/06 07:25:07;;;;;;;9.98;4.88;;;7.80;99.90;;;;;;5071848;28;20036;-68
2023/01/06 07:27:34;;;;;;;9.60;4.47;;;7.90;99.90;;;;;;5071712;28;20114;-69
2023/01/06 07:29:59;;;;;;;6.72;3.50;;;7.90;99.90;;;;;;5063745;28;20032;-67
2023/01/06 07:32:25;;;;;;;8.13;3.10;;;7.80;99.90;;;;;;5056977;28;20488;-69
2023/01/06 07:34:51;;;;;;;7.93;3.40;;;7.60;99.90;;;;;;5063114;28;20047;-69
2023/01/06 07:37:16;;;;;;;8.85;3.88;;;7.50;99.90;;;;;;5071631;28;20579;-69
2023/01/06 07:39:42;;;;;;;7.28;3.42;;;7.50;99.90;;;;;;5067735;28;20075;-70
2023/01/06 07:42:09;;;;;;;7.78;3.55;;;7.60;99.90;;;;;;5055463;28;20029;-68
2023/01/06 07:44:34;;;;;;;7.50;3.80;;;7.60;99.90;;;;;;5062425;28;20481;-68
2023/01/06 07:47:00;;;;;;;7.55;3.00;;;7.70;99.90;;;;;;5066367;28;20040;-68
2023/01/06 07:49:26;;;;;;;8.20;3.30;;;7.80;99.90;;;;;;5058369;28;20043;-70
2023/01/06 07:51:52;;;;;;;5.70;2.72;;;7.80;99.90;;;;;;5060005;28;20051;-69
2023/01/06 07:54:17;;;;;;;7.28;2.83;;;7.90;99.90;;;;;;5069530;28;20461;-69
2023/01/06 07:56:43;;;;;;;5.55;2.50;;;8.00;99.90;;;;;;5065325;28;20044;-69
2023/01/06 07:59:09;;;;;;;7.32;2.28;;;8.10;99.90;;;;;;5054198;28;20097;-68
2023/01/06 08:01:35;;;;;;;5.57;2.90;;;8.20;99.90;;;;;;5063521;28;20104;-68
2023/01/06 08:04:02;;;;;;;4.47;2.78;;;8.30;99.90;;;;;;5051389;28;20119;-68
2023/01/06 08:06:27;;;;;;;5.63;2.85;;;8.40;99.90;;;;;;5060156;28;20477;-69
2023/01/06 08:08:53;;;;;;;8.13;3.20;;;8.40;99.90;;;;;;5061285;28;20033;-72
2023/01/06 08:11:19;;;;;;;6.50;3.53;;;8.40;99.90;;;;;;5069154;28;20032;-68
2023/01/06 08:13:45;;;;;;;6.38;3.22;;;8.50;99.90;;;;;;5062888;28;20055;-70
2023/01/06 08:16:10;;;;;;;6.03;3.25;;;8.60;99.90;;;;;;5067418;28;20055;-70
2023/01/06 08:18:37;;;;;;;6.35;3.17;;;8.70;99.90;;;;;;5059822;28;20032;-69
2023/01/06 08:21:07;;;;;;;6.18;3.30;;;8.70;99.90;;;;;;5057093;28;20029;-69
2023/01/06 08:23:33;;;;;;;;;;;8.70;99.90;;;;;;5068033;28;20095;-69
2023/01/06 08:26:03;;;;;;;6.15;3.33;;;8.70;99.90;;;;;;5070992;28;20069;-69
2023/01/06 08:28:29;;;;;;;3.78;2.45;;;8.70;99.90;;;;;;5062185;28;20041;-68
2023/01/06 08:30:55;;;;;;;5.03;2.92;;;8.70;99.90;;;;;;5064262;28;20028;-69
2023/01/06 08:33:23;;;;;;;5.70;2.58;;;8.80;99.90;;;;;;5066536;28;20043;-69
2023/01/06 08:35:49;;;;;;;3.63;2.40;;;8.80;99.90;;;;;;5070644;28;20134;-69
2023/01/06 08:38:14;;;;;;;7.13;3.20;;;8.90;99.90;;;;;;5069906;28;20110;-70
2023/01/06 08:40:40;;;;;;;8.13;3.13;;;8.90;99.90;;;;;;5071093;28;20496;-68
2023/01/06 08:43:06;;;;;;;6.20;3.30;;;8.80;99.90;;;;;;5069587;28;20483;-69
2023/01/06 08:45:31;;;;;;;5.75;2.95;;;8.80;99.90;;;;;;5061073;28;20895;-69
2023/01/06 08:47:57;;;;;;;6.63;3.38;;;8.80;99.90;;;;;;5070199;28;20032;-68
2023/01/06 08:50:23;;;;;;;5.45;3.20;;;8.70;99.90;;;;;;5068876;28;20036;-69
2023/01/06 08:52:48;;;;;;;6.13;2.85;;;8.70;99.90;;;;;;5070432;28;20468;-69
2023/01/06 08:55:14;;;;;;;5.65;2.78;;;8.70;99.90;;;;;;5069362;28;20788;-69
2023/01/06 08:57:40;;;;;;;7.10;2.55;;;8.70;99.90;;;;;;5069109;28;20712;-70
2023/01/06 09:00:06;;;;;;;5.90;2.45;;;8.70;99.90;;;;;;5072998;28;20032;-69
2023/01/06 09:02:32;;;;;;;4.22;2.17;;;8.70;99.90;;;;;;5070746;28;20473;-68
2023/01/06 09:04:57;;;;;;;5.50;2.30;;;8.70;99.90;;;;;;5069852;28;20060;-71
2023/01/06 09:07:23;;;;;;;6.60;2.65;;;8.60;99.90;;;;;;5068366;28;20063;-68
2023/01/06 09:09:49;;;;;;;4.50;2.40;;;8.60;99.90;;;;;;5069730;28;20037;-68
2023/01/06 09:12:14;;;;;;;5.05;2.80;;;8.60;99.90;;;;;;5069659;28;20465;-69
2023/01/06 09:14:40;;;;;;;5.03;2.28;;;8.60;99.90;;;;;;5057539;28;20032;-69
2023/01/06 09:17:05;;;;;;;2.00;1.20;;;8.60;99.90;;;;;;5061910;28;20110;-69
2023/01/06 09:19:31;;;;;;;2.38;0.90;;;8.60;99.90;;;;;;5069726;28;20108;-68
2023/01/06 09:21:57;;;;;;;1.08;0.45;;;8.70;99.90;;;;;;5067564;28;20109;-70
2023/01/06 09:24:22;;;;;;;2.15;0.70;;;8.70;99.90;;;;;;5058107;28;20393;-68
2023/01/06 09:26:48;;;;;;;3.55;0.60;;;8.60;99.90;;;;;;5059272;28;20052;-69
2023/01/06 09:29:14;;;;;;;1.58;0.77;;;8.60;99.90;;;;;;5057152;28;20483;-68
2023/01/06 09:31:39;;;;;;;3.00;1.15;;;8.60;99.90;;;;;;5063224;28;20024;-68
2023/01/06 09:34:05;;;;;;;0.90;0.60;;;8.60;99.90;;;;;;5060322;28;20051;-69
2023/01/06 09:36:33;;;;;;;3.00;0.90;;;8.60;99.90;;;;;;5049779;28;20072;-68
2023/01/06 09:38:59;;;;;;;2.05;0.70;;;8.50;99.90;;;;;;5059035;28;20439;-69
2023/01/06 09:41:33;;;;;;;2.20;0.90;;;8.50;99.90;;;;;;5060829;28;20029;-69
2023/01/06 09:44:24;;;;;;;1.25;0.70;;;8.40;99.90;;;;;;5060143;28;20079;-69
2023/01/06 09:46:50;;;;;;;1.35;0.68;;;8.50;99.90;;;;;;5061486;28;20119;-69
2023/01/06 09:49:28;;;;;;;1.73;0.75;;;8.40;99.90;;;;;;5069212;28;20042;-68
2023/01/06 09:51:58;;;;;;;2.35;0.82;;;8.40;99.90;;;;;;5058967;28;20366;-69
2023/01/06 09:54:30;;;;;;;2.95;1.02;;;8.30;99.90;;;;;;5056904;28;20052;-70
2023/01/06 09:57:04;;;;;;;1.85;0.93;;;8.30;99.90;;;;;;5059605;28;20068;-69
2023/01/06 10:00:00;;;;;;;1.65;0.82;;;8.30;99.90;;;;;;5055009;28;20025;-69
2023/01/06 10:02:36;;;;;;;5.90;0.80;;;8.40;99.90;;;;;;5047656;28;20041;-69
2023/01/06 10:05:07;;;;;;;2.28;1.33;;;8.40;99.90;;;;;;5060721;28;20374;-70
2023/01/06 10:07:42;;;;;;;1.80;0.90;;;8.40;99.90;;;;;;5054639;28;20458;-69
2023/01/06 10:10:17;;;;;;;9.50;1.00;;;8.50;99.90;;;;;;5050949;28;20322;-68
2023/01/06 10:13:24;;;;;;;2.28;0.93;;;8.50;99.90;;;;;;5061177;28;20024;-69
2023/01/06 10:16:05;;;;;;;1.98;0.75;;;8.60;99.90;;;;;;5059771;28;20044;-70
2023/01/06 10:19:06;;;;;;;3.63;0.60;;;8.70;99.90;;;;;;5062474;28;20029;-68
2023/01/06 10:21:40;;;;;;;1.60;0.55;;;8.70;99.90;;;;;;5048415;28;20579;-69
2023/01/06 10:24:30;;;;;;;1.63;0.52;;;8.80;99.90;;;;;;5054419;28;20052;-69
2023/01/06 10:27:16;;;;;;;1.30;0.77;;;8.90;99.90;;;;;;5053506;28;20155;-69
2023/01/06 10:29:42;;;;;;;2.25;0.90;;;9.00;99.90;;;;;;5059015;28;20564;-68
2023/01/06 10:32:15;;;;;;;4.65;1.00;;;9.10;99.90;;;;;;5049726;28;20111;-69
2023/01/06 10:34:43;;;;;;;2.50;0.88;;;9.00;99.90;;;;;;5056819;28;20033;-69
2023/01/06 10:37:20;;;;;;;1.20;0.80;;;9.10;99.90;;;;;;5048442;28;20035;-70
2023/01/06 10:39:49;;;;;;;3.50;0.90;;;9.10;99.90;;;;;;5059072;28;20438;-69
2023/01/06 10:43:02;;;;;;;1.77;0.90;;;9.10;99.90;;;;;;5054358;28;20087;-69
2023/01/06 10:45:54;;;;;;;1.65;0.73;;;9.10;99.90;;;;;;5058489;28;20461;-69
2023/01/06 10:48:27;;;;;;;1.85;0.73;;;9.10;99.90;;;;;;5061418;28;20441;-69
2023/01/06 10:50:53;;;;;;;1.25;0.80;;;9.10;99.90;;;;;;5055359;28;20078;-68
2023/01/06 10:53:18;;;;;;;1.10;0.60;;;9.20;99.90;;;;;;5050893;28;20025;-69
2023/01/06 10:55:54;;;;;;;3.20;1.00;;;9.20;99.90;;;;;;5055219;28;20041;-69
2023/01/06 10:58:45;;;;;;;2.00;0.88;;;9.20;99.90;;;;;;5056718;28;20387;-70
2023/01/06 11:01:16;;;;;;;2.40;0.90;;;9.20;99.90;;;;;;5058443;28;20058;-68
2023/01/06 11:03:44;;;;;;;2.45;1.10;;;9.10;99.90;;;;;;5062140;28;20601;-70
2023/01/06 11:06:17;;;;;;;2.55;1.20;;;9.20;99.90;;;;;;5058483;28;20082;-69
2023/01/06 11:08:43;;;;;;;3.67;1.08;;;9.20;99.90;;;;;;5056986;28;20029;-70
2023/01/06 11:11:13;;;;;;;3.42;1.30;;;9.10;99.90;;;;;;5058518;28;20044;-70
2023/01/06 11:13:40;;;;;;;3.03;1.30;;;9.10;99.90;;;;;;5046581;28;20036;-69
2023/01/06 11:16:37;;;;;;;4.00;1.52;;;9.10;99.90;;;;;;5055654;28;20033;-69
2023/01/06 11:19:06;;;;;;;4.28;1.35;;;9.10;99.90;;;;;;5038769;28;20498;-68
2023/01/06 11:21:45;;;;;;;2.47;0.90;;;9.10;99.90;;;;;;5056046;28;20039;-68
2023/01/06 11:24:16;;;;;;;2.05;1.00;;;9.20;99.90;;;;;;5063528;28;20119;-69
2023/01/06 11:26:55;;;;;;;3.50;1.10;;;9.10;99.90;;;;;;5055389;28;20569;-67
2023/01/06 11:29:29;;;;;;;3.88;1.40;;;9.10;99.90;;;;;;5063629;28;20116;-69
2023/01/06 11:31:58;;;;;;;1.95;1.10;;;9.20;99.90;;;;;;5056487;28;20494;-69
2023/01/06 11:34:27;;;;;;;2.88;1.13;;;9.30;99.90;;;;;;5047534;28;20033;-68
2023/01/06 11:36:53;;;;;;;2.03;1.27;;;9.30;99.90;;;;;;5056291;28;20122;-68
2023/01/06 11:39:27;;;;;;;2.22;1.30;;;9.30;99.90;;;;;;5055845;28;20025;-69
2023/01/06 11:41:55;;;;;;;2.13;1.10;;;9.40;99.90;;;;;;5059581;28;20029;-69
2023/01/06 11:44:31;;;;;;;2.05;0.80;;;9.40;99.90;;;;;;5063473;28;20055;-68
2023/01/06 11:47:11;;;;;;;2.35;0.88;;;9.30;99.90;;;;;;5052724;28;20037;-69
2023/01/06 11:49:40;;;;;;;2.88;1.10;;;9.30;99.90;;;;;;5067440;28;20063;-69
2023/01/06 11:52:23;;;;;;;2.13;1.10;;;9.30;99.90;;;;;;5059056;28;20127;-69
2023/01/06 11:55:09;;;;;;;3.35;1.02;;;9.30;99.90;;;;;;5061635;28;20036;-68
2023/01/06 11:57:43;;;;;;;2.33;1.25;;;9.30;99.90;;;;;;5047907;28;20489;-68
2023/01/06 12:00:44;;;;;;;5.88;1.23;;;9.20;99.90;;;;;;5067137;28;20032;-69
2023/01/06 12:03:19;;;;;;;;;;;9.20;99.90;;;;;;5057274;28;20064;-70
2023/01/06 12:06:12;;;;;;;2.85;1.10;;;9.20;99.90;;;;;;5059034;28;19920;-69
2023/01/06 12:09:08;;;;;;;3.63;1.67;;;9.20;99.90;;;;;;5066447;28;20032;-69
2023/01/06 12:11:52;;;;;;;3.28;1.65;;;9.10;99.90;;;;;;5051806;28;20028;-69
2023/01/06 12:14:20;;;;;;;2.33;1.20;;;9.20;99.90;;;;;;5065167;28;20046;-68
2023/01/06 12:16:51;;;;;;;2.33;1.50;;;9.20;99.90;;;;;;5062402;28;20032;-68
2023/01/06 12:19:28;;;;;;;4.38;1.90;;;9.30;99.90;;;;;;5056429;28;20059;-68
2023/01/06 12:21:54;;;;;;;4.00;2.20;;;9.20;99.90;;;;;;5059311;28;20029;-68
2023/01/06 12:24:21;;;;;;;4.88;2.60;;;9.30;99.90;;;;;;5063306;28;20473;-69
2023/01/06 12:26:49;;;;;;;5.15;2.90;;;9.30;99.90;;;;;;5062040;28;20074;-69
2023/01/06 12:29:19;;;;;;;5.90;3.40;;;9.30;99.90;;;;;;5061821;28;20136;-69
2023/01/06 12:31:56;;;;;;;8.05;3.72;;;9.30;99.90;;;;;;5053042;28;20061;-68
2023/01/06 12:34:41;;;;;;;7.20;3.95;;;9.20;99.90;;;;;;5063963;28;20028;-69
2023/01/06 12:37:21;;;;;;;7.05;3.80;;;9.20;99.90;;;;;;5054932;28;20028;-69
2023/01/06 12:39:56;;;;;;;7.32;4.35;;;9.20;99.90;;;;;;5051578;28;20378;-69
2023/01/06 12:42:35;;;;;;;6.22;3.80;;;9.20;99.90;;;;;;5058038;28;20057;-69
2023/01/06 12:45:10;;;;;;;7.63;3.58;;;9.10;99.90;;;;;;5061786;28;20036;-68
2023/01/06 12:47:47;;;;;;;7.10;4.10;;;9.10;99.90;;;;;;5060259;28;20110;-69
2023/01/06 12:50:32;;;;;;;7.07;4.00;;;9.10;99.90;;;;;;5050784;28;20397;-69
2023/01/06 12:53:21;;;;;;;6.35;3.78;;;9.10;99.90;;;;;;5067712;28;20111;-68
2023/01/06 12:55:47;;;;;;;7.32;3.92;;;9.10;99.90;;;;;;5063225;28;20499;-69
2023/01/06 12:58:39;;;;;;;7.28;3.90;;;9.10;99.90;;;;;;5071542;28;20036;-69
2023/01/06 13:01:17;;;;;;;7.57;4.20;;;9.10;99.90;;;;;;5066494;28;20132;-69
2023/01/06 13:04:22;;;;;;;5.47;3.47;;;9.10;99.90;;;;;;5067735;28;20038;-68
2023/01/06 13:07:17;;;;;;;6.63;3.45;;;9.10;99.90;;;;;;5031240;28;20508;-69
2023/01/06 13:09:54;;;;;;;5.97;3.60;;;9.10;99.90;;;;;;5038209;28;20044;-69
2023/01/06 13:12:37;;;;;;;6.28;3.88;;;9.10;99.90;;;;;;5053700;28;20533;-68
2023/01/06 13:15:21;;;;;;;5.53;3.20;;;9.10;99.90;;;;;;5056109;28;20482;-69
2023/01/06 13:18:11;;;;;;;7.63;3.60;;;9.20;99.90;;;;;;5052319;28;20041;-69
2023/01/06 13:20:41;;;;;;;6.70;3.25;;;9.20;99.90;;;;;;5061455;28;20033;-69
2023/01/06 13:23:24;;;;;;;5.63;3.33;;;9.20;99.90;;;;;;5058070;28;20032;-68
2023/01/06 13:26:11;;;;;;;5.50;3.00;;;9.20;99.90;;;;;;5060008;28;20032;-68